Villa General Arias, Argentina
Current Conditions -  °F | °C
As of 12:00 PM on Wednesday 22 Oct 2014 (Local Time) from SAZM Reporting Station
Clear Clear  
Wind Chill: 81°   Ceiling: Unl
Heat Index: 81°   Visibility: 6mi
Dew Point: 54°   Wind: 23mph
Humidity: 39%   Direction: 340°NNW
Pressure: 29.91"   Gusts: NA
Location:  38.82°S, 62.1°W
Report Text: SAZM 221500Z 34020KT CAVOK 27/12 Q1013
Loading
Personal Weather Stations






























Interactive Weather Map
Tropical Storm Tracking
New forecast layout! Learn more

10-Day Weather Forecast

Advertisements
Track Severe Weather on mobile